Time;durP1;ratioP1;P1;durP2;ratioP2;P2;SDS_P1;SDS_P2;PMS_P1;PMS_P2;Temp;Humidity;BMP_temperature;BMP_pressure;BME280_temperature;BME280_humidity;BME280_pressure;Samples;Min_cycle;Max_cycle;Signal;HPM_P1;HPM_P2
2023/04/02 00:00:05;;;;;;;6.50;2.93;;;13.70;96.00;;;;;;6093740;23;20204;-75
2023/04/02 00:02:33;;;;;;;4.53;2.60;;;13.60;95.90;;;;;;6095661;23;20162;-74
2023/04/02 00:05:50;;;;;;;5.07;2.60;;;13.60;95.90;;;;;;6095511;23;20197;-75
2023/04/02 00:08:23;;;;;;;3.57;2.03;;;13.50;95.90;;;;;;6092202;23;20496;-76
2023/04/02 00:10:55;;;;;;;2.83;1.60;;;13.40;95.90;;;;;;6094975;23;20699;-75
2023/04/02 00:13:35;;;;;;;6.60;1.73;;;13.30;96.00;;;;;;6092471;23;20189;-75
2023/04/02 00:16:05;;;;;;;4.13;1.50;;;13.20;96.10;;;;;;6092463;23;20193;-75
2023/04/02 00:18:38;;;;;;;2.50;1.40;;;13.20;96.10;;;;;;6095887;23;20169;-76
2023/04/02 00:21:13;;;;;;;5.03;1.60;;;13.10;96.10;;;;;;6097508;23;20170;-76
2023/04/02 00:23:42;;;;;;;3.37;1.50;;;13.10;96.50;;;;;;6091038;23;20232;-76
2023/04/02 00:26:30;;;;;;;4.07;1.60;;;13.10;96.10;;;;;;6090806;23;20174;-78
2023/04/02 00:28:59;;;;;;;2.70;1.30;;;13.10;96.20;;;;;;6091152;23;20225;-75
2023/04/02 00:31:29;;;;;;;3.33;1.80;;;13.10;96.10;;;;;;6096614;23;20177;-75
2023/04/02 00:33:59;;;;;;;1.70;1.10;;;13.00;96.20;;;;;;6096165;23;20169;-77
2023/04/02 00:36:32;;;;;;;2.77;1.43;;;13.00;96.10;;;;;;6094062;23;20679;-75
2023/04/02 00:39:07;;;;;;;2.37;1.50;;;13.00;96.30;;;;;;6095952;23;20162;-76
2023/04/02 00:41:38;;;;;;;3.77;1.33;;;12.90;96.30;;;;;;6097091;23;20169;-77
2023/04/02 00:44:06;;;;;;;3.27;1.60;;;12.90;96.40;;;;;;6097302;23;20219;-76
2023/04/02 00:46:45;;;;;;;4.10;1.37;;;13.00;96.30;;;;;;6100171;23;20170;-76
2023/04/02 00:49:21;;;;;;;3.23;1.37;;;13.00;96.30;;;;;;6100021;23;20178;-75
2023/04/02 00:51:53;;;;;;;1.67;1.00;;;13.00;96.20;;;;;;6099492;23;20169;-77
2023/04/02 00:54:24;;;;;;;3.83;1.63;;;13.00;96.30;;;;;;6097492;23;20166;-75
2023/04/02 00:56:56;;;;;;;2.43;1.40;;;13.00;96.30;;;;;;6096935;23;20922;-76
2023/04/02 00:59:28;;;;;;;2.97;1.50;;;13.00;96.20;;;;;;6097490;23;20234;-76
2023/04/02 01:02:01;;;;;;;2.97;1.60;;;13.00;96.20;;;;;;6098463;23;20481;-75
2023/04/02 01:04:33;;;;;;;4.80;1.70;;;13.00;96.20;;;;;;6099239;23;20236;-76
2023/04/02 01:07:05;;;;;;;3.13;1.60;;;13.00;96.20;;;;;;6095244;23;20170;-75
2023/04/02 01:09:48;;;;;;;2.47;1.67;;;13.00;96.10;;;;;;6091721;23;20213;-77
2023/04/02 01:12:30;;;;;;;2.90;1.57;;;13.00;96.10;;;;;;6093581;23;20193;-76
2023/04/02 01:15:08;;;;;;;3.00;1.60;;;13.00;96.10;;;;;;6096902;23;20244;-76
2023/04/02 01:17:53;;;;;;;3.73;1.60;;;13.00;96.00;;;;;;6091544;23;20162;-77
2023/04/02 01:20:42;;;;;;;3.27;1.67;;;13.00;96.00;;;;;;6097547;23;20158;-75
2023/04/02 01:23:15;;;;;;;3.63;1.67;;;13.00;96.00;;;;;;6098795;23;20170;-75
2023/04/02 01:25:49;;;;;;;3.00;1.80;;;13.00;95.90;;;;;;6095251;23;20205;-75
2023/04/02 01:28:26;;;;;;;4.40;1.70;;;13.00;95.90;;;;;;6099159;23;20218;-75
2023/04/02 01:30:57;;;;;;;3.43;1.60;;;13.00;95.90;;;;;;6097231;23;20611;-74
2023/04/02 01:33:32;;;;;;;2.33;1.53;;;13.00;95.90;;;;;;6098456;23;20162;-76
2023/04/02 01:36:08;;;;;;;2.03;1.43;;;12.90;96.00;;;;;;6097660;23;20162;-76
2023/04/02 01:38:44;;;;;;;2.63;1.53;;;12.90;95.90;;;;;;6094513;23;20161;-76
2023/04/02 01:41:20;;;;;;;2.67;1.60;;;13.00;96.00;;;;;;6095164;23;20162;-75
2023/04/02 01:43:56;;;;;;;3.33;1.77;;;12.90;96.00;;;;;;6098070;23;20162;-75
2023/04/02 01:46:29;;;;;;;3.00;1.53;;;12.90;96.10;;;;;;6095689;23;20162;-76
2023/04/02 01:49:00;;;;;;;3.50;1.93;;;12.90;96.10;;;;;;6095742;23;20269;-75
2023/04/02 01:51:30;;;;;;;3.57;1.80;;;12.90;96.40;;;;;;6097891;23;20162;-74
2023/04/02 01:54:01;;;;;;;3.67;2.13;;;12.90;96.10;;;;;;6096416;23;20241;-76
2023/04/02 01:56:31;;;;;;;6.13;2.07;;;12.90;96.00;;;;;;6094813;23;20165;-76
2023/04/02 01:59:01;;;;;;;3.57;2.20;;;13.00;96.10;;;;;;6095264;23;20197;-75
2023/04/02 02:01:35;;;;;;;4.10;2.30;;;12.90;96.10;;;;;;6096940;23;20532;-75
2023/04/02 02:04:04;;;;;;;6.10;2.80;;;12.90;96.00;;;;;;6097061;23;20220;-75
2023/04/02 02:06:32;;;;;;;5.27;2.60;;;12.90;96.10;;;;;;6097996;23;20180;-75
2023/04/02 02:09:03;;;;;;;4.17;2.53;;;12.90;96.10;;;;;;6097408;23;20193;-75
2023/04/02 02:11:35;;;;;;;6.63;3.37;;;12.90;96.20;;;;;;6095781;23;20162;-76
2023/04/02 02:14:11;;;;;;;5.37;2.83;;;12.90;96.20;;;;;;6095331;23;20164;-77
2023/04/02 02:16:41;;;;;;;4.70;2.97;;;13.00;96.20;;;;;;6097145;23;20162;-75
2023/04/02 02:19:21;;;;;;;9.03;3.07;;;12.90;96.40;;;;;;6092586;23;20197;-75
2023/04/02 02:21:51;;;;;;;3.77;2.47;;;12.80;96.40;;;;;;6096004;23;20225;-75
2023/04/02 02:24:23;;;;;;;4.83;3.00;;;12.90;96.50;;;;;;6094961;23;20505;-74
2023/04/02 02:27:13;;;;;;;7.93;3.80;;;12.90;96.50;;;;;;6095904;23;20612;-74
2023/04/02 02:29:43;;;;;;;6.17;3.53;;;12.80;96.60;;;;;;6094177;23;20197;-75
2023/04/02 02:32:14;;;;;;;5.07;2.93;;;12.80;96.70;;;;;;6096675;23;20240;-74
2023/04/02 02:34:48;;;;;;;12.03;3.57;;;12.80;96.80;;;;;;6097289;23;20159;-76
2023/04/02 02:37:22;;;;;;;6.53;3.63;;;12.80;96.80;;;;;;6098420;23;20166;-76
2023/04/02 02:39:55;;;;;;;7.33;3.30;;;12.80;96.70;;;;;;6093310;23;20169;-75
2023/04/02 02:42:28;;;;;;;7.27;3.37;;;12.80;96.90;;;;;;6095212;23;20218;-75
2023/04/02 02:44:58;;;;;;;5.60;3.30;;;12.80;96.80;;;;;;6095555;23;20162;-75
2023/04/02 02:47:31;;;;;;;5.33;3.20;;;12.80;96.90;;;;;;6097493;23;20174;-76
2023/04/02 02:50:03;;;;;;;5.10;3.07;;;12.80;96.90;;;;;;6091604;23;20926;-77
2023/04/02 02:52:34;;;;;;;6.10;3.53;;;12.80;96.80;;;;;;6090576;23;20166;-77
2023/04/02 02:55:07;;;;;;;6.63;3.50;;;12.90;96.80;;;;;;6088961;23;20166;-77
2023/04/02 02:57:38;;;;;;;7.10;3.40;;;12.80;96.90;;;;;;6089768;23;20166;-75
2023/04/02 03:00:11;;;;;;;4.97;2.57;;;12.90;96.90;;;;;;6091855;23;20166;-74
2023/04/02 03:02:42;;;;;;;7.77;2.73;;;12.90;96.90;;;;;;6089815;23;20204;-75
2023/04/02 03:05:18;;;;;;;6.83;3.53;;;12.90;96.80;;;;;;6090539;23;20240;-75
2023/04/02 03:07:46;;;;;;;6.80;3.43;;;12.90;96.90;;;;;;6090072;23;20169;-76
2023/04/02 03:10:19;;;;;;;5.83;3.00;;;12.80;96.90;;;;;;6090418;23;20202;-76
2023/04/02 03:12:53;;;;;;;7.10;3.50;;;12.90;96.90;;;;;;6092490;23;20161;-75
2023/04/02 03:15:27;;;;;;;5.67;2.90;;;12.90;97.00;;;;;;6094642;23;20161;-75
2023/04/02 03:18:01;;;;;;;6.00;3.47;;;12.80;96.90;;;;;;6094106;23;20177;-75
2023/04/02 03:20:36;;;;;;;6.17;3.27;;;12.90;96.90;;;;;;6095886;23;20162;-76
2023/04/02 03:23:12;;;;;;;6.00;3.17;;;12.80;96.90;;;;;;6097283;23;20259;-75
2023/04/02 03:25:48;;;;;;;5.90;3.27;;;12.80;96.90;;;;;;6097465;23;20190;-75
2023/04/02 03:28:20;;;;;;;4.83;3.27;;;12.90;96.90;;;;;;6096269;23;20169;-75
2023/04/02 03:30:54;;;;;;;9.33;3.53;;;12.80;97.00;;;;;;6093489;23;20166;-75
2023/04/02 03:33:28;;;;;;;5.83;2.73;;;12.90;96.90;;;;;;6096644;23;20233;-75
2023/04/02 03:36:03;;;;;;;6.00;2.90;;;12.80;96.90;;;;;;6097017;23;20169;-75
2023/04/02 03:38:34;;;;;;;7.23;2.60;;;12.80;96.90;;;;;;6090626;23;20490;-75
2023/04/02 03:41:10;;;;;;;6.43;2.73;;;12.80;97.00;;;;;;6091898;23;20222;-75
2023/04/02 03:43:43;;;;;;;4.73;2.80;;;12.80;96.90;;;;;;6092945;23;20170;-76
2023/04/02 03:46:23;;;;;;;5.30;3.17;;;12.80;96.90;;;;;;6094069;23;20225;-75
2023/04/02 03:48:57;;;;;;;5.13;2.70;;;12.80;96.90;;;;;;6094876;23;20189;-75
2023/04/02 03:51:30;;;;;;;6.00;3.03;;;12.80;96.90;;;;;;6095203;23;20213;-75
2023/04/02 03:53:59;;;;;;;5.10;2.83;;;12.80;96.90;;;;;;6094142;23;20221;-75
2023/04/02 03:56:38;;;;;;;4.00;2.53;;;12.80;96.80;;;;;;6099166;23;20178;-76
2023/04/02 03:59:15;;;;;;;3.70;2.27;;;12.80;96.80;;;;;;6098744;23;20201;-75
2023/04/02 04:01:48;;;;;;;4.80;2.47;;;12.80;96.80;;;;;;6094150;23;20166;-75
2023/04/02 04:04:20;;;;;;;3.80;2.20;;;12.90;96.80;;;;;;6093790;23;20193;-76
2023/04/02 04:06:52;;;;;;;6.20;2.83;;;12.80;97.10;;;;;;6093975;23;20245;-76
2023/04/02 04:09:26;;;;;;;5.10;2.23;;;12.80;96.70;;;;;;6097165;23;20185;-75
2023/04/02 04:12:05;;;;;;;5.00;2.57;;;12.90;96.60;;;;;;6095190;23;20213;-76
2023/04/02 04:14:37;;;;;;;3.90;2.10;;;12.90;96.60;;;;;;6091606;23;20475;-75
2023/04/02 04:17:15;;;;;;;5.77;2.50;;;13.00;96.50;;;;;;6093342;23;20169;-76
2023/04/02 04:19:48;;;;;;;3.70;2.00;;;12.90;96.30;;;;;;6090972;23;20492;-76
2023/04/02 04:22:18;;;;;;;5.37;2.33;;;13.00;96.30;;;;;;6089454;23;20190;-75
2023/04/02 04:24:47;;;;;;;4.27;2.23;;;13.00;96.30;;;;;;6091369;23;20596;-74
2023/04/02 04:27:24;;;;;;;2.97;1.83;;;13.00;96.20;;;;;;6092167;23;20176;-76
2023/04/02 04:29:57;;;;;;;3.33;1.93;;;13.00;96.20;;;;;;6092016;23;20193;-76
2023/04/02 04:32:32;;;;;;;4.90;1.97;;;13.00;96.10;;;;;;6092258;23;20158;-75
2023/04/02 04:35:07;;;;;;;2.60;1.70;;;13.00;96.10;;;;;;6094390;23;20158;-75
2023/04/02 04:37:39;;;;;;;3.53;2.00;;;13.00;96.10;;;;;;6093060;23;20161;-76
2023/04/02 04:40:16;;;;;;;4.07;2.07;;;13.00;96.00;;;;;;6094963;23;20162;-76
2023/04/02 04:42:46;;;;;;;6.77;2.50;;;13.10;96.00;;;;;;6093522;23;20162;-75
2023/04/02 04:45:30;;;;;;;4.90;2.10;;;13.10;95.90;;;;;;6094502;23;20608;-75
2023/04/02 04:48:02;;;;;;;8.63;2.47;;;13.10;95.90;;;;;;6089161;23;20158;-75
2023/04/02 04:50:35;;;;;;;3.53;1.87;;;13.10;95.80;;;;;;6093605;23;20186;-76
2023/04/02 04:53:08;;;;;;;8.27;2.50;;;13.20;95.70;;;;;;6093949;23;20162;-76
2023/04/02 04:55:38;;;;;;;4.47;2.20;;;13.20;95.90;;;;;;6097751;23;20162;-76
2023/04/02 04:58:17;;;;;;;3.50;1.90;;;13.30;95.70;;;;;;6093283;23;20198;-76
2023/04/02 05:00:56;;;;;;;4.17;2.03;;;13.30;95.60;;;;;;6097195;23;20166;-76
2023/04/02 05:03:32;;;;;;;3.50;1.97;;;13.40;95.50;;;;;;6097414;23;20165;-76
2023/04/02 05:06:08;;;;;;;3.90;2.27;;;13.40;95.40;;;;;;6094479;23;20162;-77
2023/04/02 05:08:40;;;;;;;3.70;1.73;;;13.40;95.30;;;;;;6097514;23;20162;-76
2023/04/02 05:11:14;;;;;;;4.37;2.37;;;13.50;95.10;;;;;;6100315;23;20214;-77
2023/04/02 05:13:48;;;;;;;3.50;1.73;;;13.50;94.90;;;;;;6096421;23;20488;-75
2023/04/02 05:16:23;;;;;;;4.53;2.00;;;13.50;94.80;;;;;;6095741;23;20221;-76
2023/04/02 05:18:59;;;;;;;5.40;2.50;;;13.50;95.10;;;;;;6093774;23;20165;-75
2023/04/02 05:21:37;;;;;;;3.90;2.20;;;13.50;94.70;;;;;;6095883;23;20178;-75
2023/04/02 05:24:37;;;;;;;3.47;2.07;;;13.50;94.70;;;;;;6094751;23;20218;-76
2023/04/02 05:27:15;;;;;;;4.73;2.07;;;13.50;94.70;;;;;;6084199;23;20233;-76
2023/04/02 05:29:48;;;;;;;4.13;2.23;;;13.50;94.70;;;;;;6093462;23;20193;-75
2023/04/02 05:32:20;;;;;;;3.80;1.97;;;13.50;94.70;;;;;;6092865;23;20233;-76
2023/04/02 05:34:53;;;;;;;4.70;2.47;;;13.50;94.60;;;;;;6094120;23;20237;-76
2023/04/02 05:37:26;;;;;;;5.60;2.30;;;13.50;94.50;;;;;;6093305;23;20166;-75
2023/04/02 05:39:56;;;;;;;3.33;2.13;;;13.50;94.60;;;;;;6092643;23;20170;-75
2023/04/02 05:42:28;;;;;;;4.73;2.00;;;13.50;94.50;;;;;;6093176;23;20617;-75
2023/04/02 05:45:13;;;;;;;3.67;1.97;;;13.40;94.50;;;;;;6094513;23;20170;-75
2023/04/02 05:47:43;;;;;;;3.30;1.80;;;13.40;94.50;;;;;;6095267;23;20158;-76
2023/04/02 05:50:22;;;;;;;5.07;2.00;;;13.40;94.50;;;;;;6094041;23;20196;-76
2023/04/02 05:52:56;;;;;;;3.37;1.80;;;13.50;94.50;;;;;;6094183;23;20166;-75
2023/04/02 05:55:34;;;;;;;2.93;1.53;;;13.40;94.50;;;;;;6093062;23;20592;-75
2023/04/02 05:58:07;;;;;;;3.53;1.90;;;13.40;94.40;;;;;;6089880;23;20229;-78
2023/04/02 06:01:16;;;;;;;5.27;1.53;;;13.50;94.50;;;;;;6095421;23;20238;-75
2023/04/02 06:03:51;;;;;;;3.50;2.07;;;13.50;94.50;;;;;;6098733;23;20178;-75
2023/04/02 06:06:28;;;;;;;3.00;1.50;;;13.60;94.50;;;;;;6099366;23;20162;-75
2023/04/02 06:09:04;;;;;;;5.87;2.73;;;13.60;94.40;;;;;;6099778;23;20165;-75
2023/04/02 06:11:41;;;;;;;4.80;2.50;;;13.60;94.40;;;;;;6098924;23;20185;-75
2023/04/02 06:14:12;;;;;;;5.53;2.43;;;13.70;94.40;;;;;;6097961;23;20158;-75
2023/04/02 06:16:41;;;;;;;5.90;2.20;;;13.60;94.10;;;;;;6095790;23;20541;-76
2023/04/02 06:19:17;;;;;;;3.63;1.87;;;13.70;94.20;;;;;;6094534;23;20682;-78
2023/04/02 06:21:46;;;;;;;2.47;1.40;;;13.70;94.10;;;;;;6093886;23;20472;-76
2023/04/02 06:24:19;;;;;;;1.97;1.20;;;13.70;94.00;;;;;;6094128;23;20182;-74
2023/04/02 06:26:53;;;;;;;3.27;1.60;;;13.70;94.00;;;;;;6092881;23;20177;-75
2023/04/02 06:29:28;;;;;;;4.03;1.93;;;13.70;94.00;;;;;;6091862;23;20169;-76
2023/04/02 06:31:58;;;;;;;3.53;1.73;;;13.70;93.90;;;;;;6094253;23;20193;-76
2023/04/02 06:34:29;;;;;;;2.77;1.30;;;13.80;93.90;;;;;;6094631;23;20161;-76
2023/04/02 06:37:02;;;;;;;2.83;1.70;;;13.80;93.90;;;;;;6097405;23;20174;-75
2023/04/02 06:39:31;;;;;;;2.60;1.10;;;13.80;93.80;;;;;;6095324;23;20169;-76
2023/04/02 06:42:02;;;;;;;2.20;1.20;;;13.80;93.80;;;;;;6095320;23;20619;-76
2023/04/02 06:44:35;;;;;;;2.23;1.20;;;13.90;93.80;;;;;;6097742;23;20162;-76
2023/04/02 06:47:07;;;;;;;1.90;1.00;;;13.90;93.70;;;;;;6094983;23;20168;-76
2023/04/02 06:49:40;;;;;;;2.20;1.25;;;14.00;93.70;;;;;;6096528;23;20386;-74
2023/04/02 06:52:18;;;;;;;3.00;1.10;;;14.00;93.70;;;;;;6100562;23;20189;-76
2023/04/02 06:54:48;;;;;;;1.37;0.90;;;14.00;93.50;;;;;;6098699;23;20158;-76
2023/04/02 06:57:17;;;;;;;1.97;1.07;;;14.00;93.50;;;;;;6097859;23;20188;-76
2023/04/02 06:59:45;;;;;;;2.93;1.37;;;14.00;93.20;;;;;;6097560;23;20197;-75
2023/04/02 07:02:28;;;;;;;2.23;1.00;;;14.00;93.20;;;;;;6098880;23;20392;-76
2023/04/02 07:05:02;;;;;;;2.33;0.83;;;14.00;93.20;;;;;;6099255;23;20676;-76
2023/04/02 07:07:31;;;;;;;1.67;1.07;;;14.00;93.00;;;;;;6101159;23;20161;-76
2023/04/02 07:10:00;;;;;;;2.37;1.10;;;14.00;92.90;;;;;;6099133;23;20177;-75
2023/04/02 07:12:29;;;;;;;2.20;1.10;;;14.00;93.00;;;;;;6099561;23;20666;-76
2023/04/02 07:14:57;;;;;;;2.07;1.20;;;14.10;93.00;;;;;;6097867;23;20237;-76
2023/04/02 07:17:25;;;;;;;2.70;1.53;;;14.10;93.00;;;;;;6097824;23;20173;-76
2023/04/02 07:19:54;;;;;;;2.40;1.00;;;14.10;93.10;;;;;;6097652;23;20220;-76
2023/04/02 07:22:24;;;;;;;3.23;0.90;;;14.10;93.20;;;;;;6098415;23;20174;-75
2023/04/02 07:24:52;;;;;;;2.47;1.10;;;14.20;93.30;;;;;;6099245;23;20651;-76
2023/04/02 07:27:22;;;;;;;2.77;1.13;;;14.20;93.20;;;;;;6100322;23;20185;-77
2023/04/02 07:29:50;;;;;;;3.33;1.10;;;14.10;93.20;;;;;;6099516;23;20178;-76
2023/04/02 07:32:19;;;;;;;3.33;1.30;;;14.10;93.30;;;;;;6095900;23;20208;-77
2023/04/02 07:34:48;;;;;;;2.20;1.23;;;14.10;93.30;;;;;;6096791;23;20494;-77
2023/04/02 07:37:16;;;;;;;2.60;1.10;;;14.10;93.70;;;;;;6096385;23;20192;-76
2023/04/02 07:39:44;;;;;;;4.03;1.30;;;14.20;93.40;;;;;;6096767;23;20291;-77
2023/04/02 07:42:12;;;;;;;3.07;1.30;;;14.20;93.50;;;;;;6094676;23;20702;-76
2023/04/02 07:44:42;;;;;;;2.53;1.50;;;14.20;93.50;;;;;;6095035;23;20777;-77
2023/04/02 07:47:11;;;;;;;2.67;1.33;;;14.30;93.50;;;;;;6096985;23;20217;-77
2023/04/02 07:49:39;;;;;;;5.13;1.50;;;14.40;93.50;;;;;;6094518;23;20265;-78
2023/04/02 07:52:07;;;;;;;3.53;1.63;;;14.40;93.60;;;;;;6093180;23;20204;-77
2023/04/02 07:54:37;;;;;;;3.77;1.50;;;14.40;93.60;;;;;;6093387;23;20674;-77
2023/04/02 07:57:05;;;;;;;6.27;2.30;;;14.40;93.50;;;;;;6094264;23;20170;-80
2023/04/02 07:59:33;;;;;;;6.37;2.23;;;14.50;93.60;;;;;;6096861;23;20269;-77
2023/04/02 08:02:03;;;;;;;6.87;1.97;;;14.50;93.60;;;;;;6097433;23;20174;-76
2023/04/02 08:04:31;;;;;;;5.57;2.57;;;14.50;93.70;;;;;;6095506;23;20653;-78
2023/04/02 08:07:00;;;;;;;5.37;2.47;;;14.60;93.90;;;;;;6094788;23;20212;-78
2023/04/02 08:09:28;;;;;;;6.50;2.47;;;14.60;94.00;;;;;;6095222;23;20174;-78
2023/04/02 08:11:57;;;;;;;4.57;2.30;;;14.60;94.00;;;;;;6095859;23;20227;-77
2023/04/02 08:14:25;;;;;;;6.43;2.70;;;14.60;93.90;;;;;;6094944;23;20608;-78
2023/04/02 08:16:56;;;;;;;4.77;2.53;;;14.60;93.90;;;;;;6096432;23;20170;-78
2023/04/02 08:19:27;;;;;;;5.53;2.70;;;14.70;93.90;;;;;;6095235;23;20162;-78
2023/04/02 08:21:55;;;;;;;4.67;2.30;;;14.70;93.90;;;;;;6095136;23;20229;-79
2023/04/02 08:24:23;;;;;;;6.23;2.40;;;14.70;93.80;;;;;;6096266;23;20178;-78
2023/04/02 08:26:53;;;;;;;6.03;2.40;;;14.70;93.80;;;;;;6094206;23;20174;-78
2023/04/02 08:29:22;;;;;;;6.67;2.50;;;14.80;93.80;;;;;;6092752;23;20178;-78
2023/04/02 08:31:50;;;;;;;3.57;2.27;;;14.80;93.80;;;;;;6095521;23;20543;-76
2023/04/02 08:34:18;;;;;;;5.40;2.77;;;14.90;93.80;;;;;;6095257;23;20536;-77
2023/04/02 08:36:48;;;;;;;6.80;3.07;;;14.90;93.70;;;;;;6094993;23;20233;-76
2023/04/02 08:39:16;;;;;;;5.60;2.67;;;15.00;93.80;;;;;;6096724;23;20170;-76
2023/04/02 08:41:51;;;;;;;5.53;2.40;;;15.00;93.60;;;;;;6096012;23;20646;-76
2023/04/02 08:44:35;;;;;;;5.90;3.00;;;15.10;93.70;;;;;;6095216;23;20170;-77
2023/04/02 08:47:05;;;;;;;4.20;2.63;;;15.20;93.70;;;;;;6094462;23;20162;-77
2023/04/02 08:49:38;;;;;;;6.37;2.80;;;15.30;93.60;;;;;;6095761;23;20170;-77
2023/04/02 08:52:20;;;;;;;4.40;2.60;;;15.30;93.60;;;;;;6095908;23;20186;-76
2023/04/02 08:54:48;;;;;;;5.80;2.50;;;15.40;93.70;;;;;;6096013;23;20173;-77
2023/04/02 08:57:27;;;;;;;3.83;2.10;;;15.40;93.30;;;;;;6095371;23;20240;-76
2023/04/02 09:00:00;;;;;;;4.93;2.50;;;15.50;93.40;;;;;;6096065;23;20316;-76
2023/04/02 09:02:37;;;;;;;5.60;2.93;;;15.50;93.30;;;;;;6096120;23;20193;-77
2023/04/02 09:05:15;;;;;;;6.20;2.10;;;15.60;93.30;;;;;;6094986;23;20702;-76
2023/04/02 09:07:45;;;;;;;4.70;2.00;;;15.70;93.30;;;;;;6093579;23;20209;-76
2023/04/02 09:10:15;;;;;;;6.33;2.33;;;15.70;93.20;;;;;;6093547;23;20603;-76
2023/04/02 09:12:46;;;;;;;3.93;2.20;;;15.80;93.10;;;;;;6092651;23;20729;-75
2023/04/02 09:15:23;;;;;;;6.17;2.00;;;15.80;93.10;;;;;;6092263;23;20158;-76
2023/04/02 09:17:59;;;;;;;4.90;2.20;;;15.90;93.10;;;;;;6092970;23;20166;-75
2023/04/02 09:20:29;;;;;;;3.87;2.17;;;15.90;93.10;;;;;;6092181;23;20164;-75
2023/04/02 09:23:00;;;;;;;4.17;2.47;;;16.00;93.00;;;;;;6092083;23;20178;-75
2023/04/02 09:25:31;;;;;;;3.43;1.73;;;16.10;93.00;;;;;;6093407;23;20241;-76
2023/04/02 09:28:02;;;;;;;3.20;1.90;;;16.20;92.80;;;;;;6093842;23;20162;-77
2023/04/02 09:30:45;;;;;;;4.07;1.70;;;16.20;92.70;;;;;;6093769;23;20627;-76
2023/04/02 09:33:14;;;;;;;3.43;1.60;;;16.30;92.60;;;;;;6089013;23;20189;-76
2023/04/02 09:35:55;;;;;;;3.80;1.40;;;16.40;92.60;;;;;;6091281;23;20188;-76
2023/04/02 09:38:30;;;;;;;2.53;1.33;;;16.50;92.60;;;;;;6092754;23;20217;-75
2023/04/02 09:41:00;;;;;;;3.50;1.40;;;16.50;92.40;;;;;;6093632;23;20162;-76
2023/04/02 09:43:31;;;;;;;8.73;3.00;;;16.60;92.40;;;;;;6094158;23;20169;-76
2023/04/02 09:46:01;;;;;;;8.87;5.43;;;16.70;92.40;;;;;;6093322;23;20626;-76
2023/04/02 09:48:32;;;;;;;4.93;1.90;;;16.70;92.40;;;;;;6092817;23;20484;-76
2023/04/02 09:51:15;;;;;;;2.63;1.50;;;16.70;92.20;;;;;;6092652;23;20549;-76
2023/04/02 09:53:47;;;;;;;5.73;2.10;;;16.80;92.00;;;;;;6094299;23;20655;-76
2023/04/02 09:56:20;;;;;;;4.57;2.27;;;16.80;91.80;;;;;;6094504;23;20162;-79
2023/04/02 09:59:04;;;;;;;6.57;2.83;;;16.80;91.70;;;;;;6095064;23;20230;-76
2023/04/02 10:01:35;;;;;;;5.27;1.77;;;16.80;91.20;;;;;;6094886;23;20607;-77
2023/04/02 10:04:06;;;;;;;3.80;1.60;;;16.90;91.30;;;;;;6094650;23;20627;-76
2023/04/02 10:06:35;;;;;;;3.93;2.03;;;16.90;91.00;;;;;;6092744;23;20171;-76
2023/04/02 10:09:30;;;;;;;5.87;1.87;;;16.90;91.10;;;;;;6092477;23;20182;-74
2023/04/02 10:12:00;;;;;;;3.10;1.70;;;16.90;91.00;;;;;;6068053;23;20209;-75
2023/04/02 10:14:33;;;;;;;3.60;2.17;;;16.90;90.90;;;;;;6092801;23;20879;-75
2023/04/02 10:17:07;;;;;;;2.93;1.77;;;17.00;91.00;;;;;;6094831;23;20371;-75
2023/04/02 10:19:39;;;;;;;4.57;2.57;;;17.00;90.90;;;;;;6092034;23;20162;-76
2023/04/02 10:22:13;;;;;;;5.03;2.73;;;17.00;91.20;;;;;;6094060;23;20166;-76
2023/04/02 10:24:43;;;;;;;5.50;3.40;;;17.10;91.10;;;;;;6094373;23;20233;-75
2023/04/02 10:27:25;;;;;;;5.28;2.70;;;17.10;91.10;;;;;;6092409;23;20390;-76
2023/04/02 10:30:09;;;;;;;5.07;2.47;;;17.10;91.00;;;;;;6095746;23;20177;-76
2023/04/02 10:32:44;;;;;;;3.67;2.20;;;17.10;90.60;;;;;;6096488;23;20193;-75
2023/04/02 10:35:21;;;;;;;5.90;3.00;;;17.00;90.10;;;;;;6093999;23;20205;-76
2023/04/02 10:38:09;;;;;;;3.97;1.97;;;17.00;89.70;;;;;;6093597;23;20540;-76
2023/04/02 10:40:44;;;;;;;4.00;2.30;;;17.00;89.90;;;;;;6094512;23;20158;-76
2023/04/02 10:43:37;;;;;;;4.47;2.80;;;17.00;90.00;;;;;;6094442;23;20185;-76
2023/04/02 10:46:12;;;;;;;8.67;4.83;;;17.00;89.90;;;;;;6091745;23;20218;-75
2023/04/02 10:48:48;;;;;;;6.27;3.50;;;17.10;90.00;;;;;;6093719;23;20485;-75
2023/04/02 10:51:28;;;;;;;4.50;2.70;;;17.10;90.00;;;;;;6091159;23;20462;-76
2023/04/02 10:54:02;;;;;;;9.43;3.97;;;17.10;90.00;;;;;;6091463;23;20196;-75
2023/04/02 10:56:32;;;;;;;5.20;3.00;;;17.20;90.00;;;;;;6094415;23;20162;-75
2023/04/02 10:59:19;;;;;;;6.70;3.10;;;17.20;89.30;;;;;;6094128;23;20197;-76
2023/04/02 11:01:49;;;;;;;7.90;3.50;;;17.10;88.90;;;;;;6092861;23;20162;-76
2023/04/02 11:04:22;;;;;;;5.00;2.83;;;17.20;89.10;;;;;;6086256;23;20162;-75
2023/04/02 11:06:54;;;;;;;4.27;2.20;;;17.10;88.90;;;;;;6090337;23;20162;-75
2023/04/02 11:09:43;;;;;;;5.47;2.80;;;17.20;88.60;;;;;;6085071;23;20177;-75
2023/04/02 11:12:21;;;;;;;5.23;3.00;;;17.20;89.00;;;;;;6088450;23;20169;-76
2023/04/02 11:14:51;;;;;;;5.07;2.93;;;17.20;88.80;;;;;;6089876;23;20492;-76
2023/04/02 11:17:21;;;;;;;5.53;2.90;;;17.20;88.40;;;;;;6088859;23;20543;-75
2023/04/02 11:19:49;;;;;;;4.83;3.07;;;17.20;88.80;;;;;;6090413;23;20624;-75
2023/04/02 11:22:20;;;;;;;5.90;2.80;;;17.30;89.10;;;;;;6091186;23;21183;-74
2023/04/02 11:24:49;;;;;;;4.30;2.50;;;17.30;89.20;;;;;;6091736;23;20253;-78
2023/04/02 11:27:26;;;;;;;4.97;2.87;;;17.30;88.60;;;;;;6088275;23;20244;-76
2023/04/02 11:30:03;;;;;;;4.87;2.77;;;17.30;87.90;;;;;;6089990;23;20215;-75
2023/04/02 11:32:35;;;;;;;4.57;2.17;;;17.40;86.70;;;;;;6091441;23;20539;-76
2023/04/02 11:35:35;;;;;;;4.03;2.23;;;17.40;86.70;;;;;;6087450;23;20493;-73
2023/04/02 11:38:43;;;;;;;4.27;2.20;;;17.40;86.70;;;;;;6091400;23;20217;-77
2023/04/02 11:41:11;;;;;;;3.87;2.27;;;17.50;87.10;;;;;;6089035;23;20174;-74
2023/04/02 11:43:51;;;;;;;3.80;2.57;;;17.50;86.90;;;;;;6092107;23;20170;-76
2023/04/02 11:46:50;;;;;;;3.90;2.23;;;17.60;86.50;;;;;;6086554;23;20169;-75
2023/04/02 11:49:36;;;;;;;4.13;2.97;;;17.70;86.60;;;;;;6091199;23;20173;-76
2023/04/02 11:52:19;;;;;;;5.00;2.57;;;17.80;86.30;;;;;;6092705;23;20548;-76
2023/04/02 11:54:56;;;;;;;6.80;2.77;;;18.00;86.50;;;;;;6092979;23;20190;-75
2023/04/02 11:57:39;;;;;;;3.87;2.57;;;18.10;86.60;;;;;;6092531;23;20173;-75
2023/04/02 12:00:32;;;;;;;3.53;2.40;;;18.20;84.20;;;;;;6088946;23;20193;-76
2023/04/02 12:03:40;;;;;;;4.37;2.20;;;18.20;83.00;;;;;;6094387;23;20161;-75
2023/04/02 12:06:18;;;;;;;3.00;2.30;;;18.30;83.70;;;;;;6026047;23;20174;-73
2023/04/02 12:08:55;;;;;;;3.57;2.70;;;18.50;84.60;;;;;;6093573;23;20158;-76
2023/04/02 12:11:33;;;;;;;4.32;2.95;;;18.70;84.30;;;;;;6092831;23;20433;-72
2023/04/02 12:14:07;;;;;;;5.13;2.20;;;18.90;83.80;;;;;;6094716;23;20198;-73
2023/04/02 12:16:38;;;;;;;5.20;3.60;;;18.90;82.90;;;;;;6094926;23;20166;-74
2023/04/02 12:19:09;;;;;;;4.57;2.50;;;19.10;80.80;;;;;;6093219;23;20722;-76
2023/04/02 12:21:38;;;;;;;4.30;1.85;;;19.20;80.30;;;;;;6092029;23;20162;-73
2023/04/02 12:24:15;;;;;;;7.45;2.40;;;19.30;77.80;;;;;;6091030;23;20500;-73
2023/04/02 12:26:45;;;;;;;4.32;2.35;;;19.50;79.10;;;;;;6090338;23;20165;-74
2023/04/02 12:29:25;;;;;;;4.45;2.30;;;19.60;78.50;;;;;;6093995;23;20636;-77
2023/04/02 12:31:56;;;;;;;4.03;2.42;;;19.60;77.70;;;;;;6092177;23;20158;-74
2023/04/02 12:34:26;;;;;;;4.53;2.50;;;19.70;77.70;;;;;;6094811;23;20562;-74
2023/04/02 12:36:56;;;;;;;4.72;2.42;;;19.90;78.90;;;;;;6095802;23;20174;-75
2023/04/02 12:39:25;;;;;;;2.72;1.55;;;20.10;78.90;;;;;;6094113;23;20198;-76
2023/04/02 12:41:56;;;;;;;4.00;1.63;;;20.20;75.60;;;;;;6095266;23;20172;-73
2023/04/02 12:44:26;;;;;;;3.20;1.50;;;20.30;75.70;;;;;;6096093;23;20178;-75
2023/04/02 12:46:58;;;;;;;1.95;1.30;;;20.40;75.10;;;;;;6094421;23;20166;-76
2023/04/02 12:49:35;;;;;;;2.53;1.50;;;20.40;72.50;;;;;;6095335;23;20197;-75
2023/04/02 12:52:06;;;;;;;3.47;1.75;;;20.50;73.20;;;;;;6094999;23;20493;-75
2023/04/02 12:54:38;;;;;;;2.13;1.20;;;20.60;71.90;;;;;;6093653;23;20197;-75
2023/04/02 13:00:30;;;;;;;1.67;1.08;;;20.50;68.50;;;;;;6065068;23;20163;-74
2023/04/02 13:03:14;;;;;;;3.05;1.40;;;20.50;70.30;;;;;;6087093;23;20217;-74
2023/04/02 13:05:47;;;;;;;2.28;1.30;;;20.60;70.70;;;;;;6088956;23;20162;-74
2023/04/02 13:08:18;;;;;;;4.18;1.60;;;20.70;70.50;;;;;;6094936;23;20221;-73
2023/04/02 13:10:53;;;;;;;2.00;1.27;;;20.70;70.00;;;;;;6093681;23;20642;-74
2023/04/02 13:13:29;;;;;;;2.72;1.10;;;20.90;71.20;;;;;;6094458;23;20217;-73
2023/04/02 13:16:03;;;;;;;2.60;1.45;;;21.00;69.40;;;;;;6093147;23;20221;-74
2023/04/02 13:18:35;;;;;;;2.42;1.67;;;21.20;69.40;;;;;;6095056;23;20588;-74
2023/04/02 13:21:05;;;;;;;2.15;1.27;;;21.30;69.40;;;;;;6092722;23;20217;-75
2023/04/02 13:23:36;;;;;;;2.05;1.50;;;21.50;69.60;;;;;;6093322;23;20178;-74
2023/04/02 13:26:18;;;;;;;2.15;1.40;;;21.70;69.30;;;;;;6093148;23;20192;-74